sensor_id;sensor_type;location;lat;lon;timestamp;P1;durP1;ratioP1;P2;durP2;ratioP2
54561;SDS011;69047;53.358;-1.486;2023-11-21T00:00:20;5.25;;;0.50;;
54561;SDS011;69047;53.358;-1.486;2023-11-21T00:02:46;1.60;;;0.60;;
54561;SDS011;69047;53.358;-1.486;2023-11-21T00:05:12;3.58;;;0.60;;
54561;SDS011;69047;53.358;-1.486;2023-11-21T00:07:39;1.77;;;0.60;;
54561;SDS011;69047;53.358;-1.486;2023-11-21T00:10:04;1.42;;;0.57;;
54561;SDS011;69047;53.358;-1.486;2023-11-21T00:12:31;0.60;;;0.30;;
54561;SDS011;69047;53.358;-1.486;2023-11-21T00:14:58;1.25;;;0.35;;
54561;SDS011;69047;53.358;-1.486;2023-11-21T00:17:24;2.05;;;0.60;;
54561;SDS011;69047;53.358;-1.486;2023-11-21T00:19:49;3.45;;;0.60;;
54561;SDS011;69047;53.358;-1.486;2023-11-21T00:22:18;1.05;;;0.40;;
54561;SDS011;69047;53.358;-1.486;2023-11-21T00:24:45;1.35;;;0.40;;
54561;SDS011;69047;53.358;-1.486;2023-11-21T00:27:13;4.97;;;0.60;;
54561;SDS011;69047;53.358;-1.486;2023-11-21T00:29:39;3.00;;;0.80;;
54561;SDS011;69047;53.358;-1.486;2023-11-21T00:32:05;0.57;;;0.40;;
54561;SDS011;69047;53.358;-1.486;2023-11-21T00:34:32;1.48;;;0.43;;
54561;SDS011;69047;53.358;-1.486;2023-11-21T00:36:59;2.20;;;0.50;;
54561;SDS011;69047;53.358;-1.486;2023-11-21T00:39:24;0.68;;;0.40;;
54561;SDS011;69047;53.358;-1.486;2023-11-21T00:41:51;0.95;;;0.38;;
54561;SDS011;69047;53.358;-1.486;2023-11-21T00:44:17;1.48;;;0.35;;
54561;SDS011;69047;53.358;-1.486;2023-11-21T00:46:42;2.95;;;0.60;;
54561;SDS011;69047;53.358;-1.486;2023-11-21T00:49:08;1.30;;;0.63;;
54561;SDS011;69047;53.358;-1.486;2023-11-21T00:51:33;2.58;;;0.47;;
54561;SDS011;69047;53.358;-1.486;2023-11-21T00:53:59;2.60;;;0.60;;
54561;SDS011;69047;53.358;-1.486;2023-11-21T00:56:25;2.40;;;0.63;;
54561;SDS011;69047;53.358;-1.486;2023-11-21T00:58:50;4.03;;;0.50;;
54561;SDS011;69047;53.358;-1.486;2023-11-21T01:01:17;4.18;;;0.43;;
54561;SDS011;69047;53.358;-1.486;2023-11-21T01:03:45;2.30;;;0.60;;
54561;SDS011;69047;53.358;-1.486;2023-11-21T01:06:11;4.22;;;0.98;;
54561;SDS011;69047;53.358;-1.486;2023-11-21T01:08:37;1.90;;;0.57;;
54561;SDS011;69047;53.358;-1.486;2023-11-21T01:11:02;3.63;;;0.47;;
54561;SDS011;69047;53.358;-1.486;2023-11-21T01:13:28;2.17;;;0.70;;
54561;SDS011;69047;53.358;-1.486;2023-11-21T01:15:54;5.53;;;0.43;;
54561;SDS011;69047;53.358;-1.486;2023-11-21T01:18:20;4.15;;;0.38;;
54561;SDS011;69047;53.358;-1.486;2023-11-21T01:20:46;2.97;;;0.40;;
54561;SDS011;69047;53.358;-1.486;2023-11-21T01:23:12;2.00;;;0.50;;
54561;SDS011;69047;53.358;-1.486;2023-11-21T01:25:38;1.75;;;0.70;;
54561;SDS011;69047;53.358;-1.486;2023-11-21T01:28:03;3.67;;;0.50;;
54561;SDS011;69047;53.358;-1.486;2023-11-21T01:30:28;4.15;;;0.80;;
54561;SDS011;69047;53.358;-1.486;2023-11-21T01:32:54;3.40;;;0.57;;
54561;SDS011;69047;53.358;-1.486;2023-11-21T01:35:19;6.78;;;0.80;;
54561;SDS011;69047;53.358;-1.486;2023-11-21T01:37:45;2.53;;;0.63;;
54561;SDS011;69047;53.358;-1.486;2023-11-21T01:40:10;4.22;;;1.00;;
54561;SDS011;69047;53.358;-1.486;2023-11-21T01:42:39;2.47;;;0.43;;
54561;SDS011;69047;53.358;-1.486;2023-11-21T01:45:05;4.22;;;0.70;;
54561;SDS011;69047;53.358;-1.486;2023-11-21T01:47:32;5.85;;;0.98;;
54561;SDS011;69047;53.358;-1.486;2023-11-21T01:49:58;3.25;;;0.55;;
54561;SDS011;69047;53.358;-1.486;2023-11-21T01:52:24;4.95;;;0.77;;
54561;SDS011;69047;53.358;-1.486;2023-11-21T01:54:49;6.40;;;0.80;;
54561;SDS011;69047;53.358;-1.486;2023-11-21T01:57:15;5.82;;;0.80;;
54561;SDS011;69047;53.358;-1.486;2023-11-21T01:59:41;3.20;;;0.60;;
54561;SDS011;69047;53.358;-1.486;2023-11-21T02:02:09;4.43;;;0.88;;
54561;SDS011;69047;53.358;-1.486;2023-11-21T02:04:35;3.05;;;0.50;;
54561;SDS011;69047;53.358;-1.486;2023-11-21T02:07:02;4.38;;;0.77;;
54561;SDS011;69047;53.358;-1.486;2023-11-21T02:09:31;4.93;;;1.10;;
54561;SDS011;69047;53.358;-1.486;2023-11-21T02:11:58;6.68;;;0.70;;
54561;SDS011;69047;53.358;-1.486;2023-11-21T02:14:28;6.72;;;0.55;;
54561;SDS011;69047;53.358;-1.486;2023-11-21T02:16:56;4.32;;;0.82;;
54561;SDS011;69047;53.358;-1.486;2023-11-21T02:19:22;2.30;;;0.50;;
54561;SDS011;69047;53.358;-1.486;2023-11-21T02:21:50;2.05;;;0.55;;
54561;SDS011;69047;53.358;-1.486;2023-11-21T02:24:18;7.35;;;0.50;;
54561;SDS011;69047;53.358;-1.486;2023-11-21T02:26:45;4.75;;;0.50;;
54561;SDS011;69047;53.358;-1.486;2023-11-21T02:29:11;2.70;;;0.50;;
54561;SDS011;69047;53.358;-1.486;2023-11-21T02:31:38;5.18;;;0.63;;
54561;SDS011;69047;53.358;-1.486;2023-11-21T02:34:22;3.28;;;0.43;;
54561;SDS011;69047;53.358;-1.486;2023-11-21T02:36:50;5.85;;;0.70;;
54561;SDS011;69047;53.358;-1.486;2023-11-21T02:39:16;6.55;;;0.43;;
54561;SDS011;69047;53.358;-1.486;2023-11-21T02:41:42;2.33;;;0.40;;
54561;SDS011;69047;53.358;-1.486;2023-11-21T02:44:09;1.55;;;0.32;;
54561;SDS011;69047;53.358;-1.486;2023-11-21T02:46:34;4.95;;;0.50;;
54561;SDS011;69047;53.358;-1.486;2023-11-21T02:49:01;5.88;;;1.20;;
54561;SDS011;69047;53.358;-1.486;2023-11-21T02:51:35;1.75;;;0.40;;
54561;SDS011;69047;53.358;-1.486;2023-11-21T02:54:01;2.40;;;0.30;;
54561;SDS011;69047;53.358;-1.486;2023-11-21T02:56:30;1.95;;;0.30;;
54561;SDS011;69047;53.358;-1.486;2023-11-21T02:58:56;0.43;;;0.38;;
54561;SDS011;69047;53.358;-1.486;2023-11-21T03:01:21;1.38;;;0.47;;
54561;SDS011;69047;53.358;-1.486;2023-11-21T03:03:48;0.52;;;0.40;;
54561;SDS011;69047;53.358;-1.486;2023-11-21T03:06:16;3.95;;;0.35;;
54561;SDS011;69047;53.358;-1.486;2023-11-21T03:08:42;4.38;;;0.40;;
54561;SDS011;69047;53.358;-1.486;2023-11-21T03:11:07;1.38;;;0.30;;
54561;SDS011;69047;53.358;-1.486;2023-11-21T03:13:33;2.13;;;0.68;;
54561;SDS011;69047;53.358;-1.486;2023-11-21T03:15:58;0.40;;;0.30;;
54561;SDS011;69047;53.358;-1.486;2023-11-21T03:18:24;4.15;;;0.38;;
54561;SDS011;69047;53.358;-1.486;2023-11-21T03:20:49;6.35;;;0.30;;
54561;SDS011;69047;53.358;-1.486;2023-11-21T03:23:17;0.70;;;0.20;;
54561;SDS011;69047;53.358;-1.486;2023-11-21T03:25:43;2.50;;;0.40;;
54561;SDS011;69047;53.358;-1.486;2023-11-21T03:28:08;0.25;;;0.15;;
54561;SDS011;69047;53.358;-1.486;2023-11-21T03:30:34;2.33;;;0.30;;
54561;SDS011;69047;53.358;-1.486;2023-11-21T03:32:59;0.77;;;0.40;;
54561;SDS011;69047;53.358;-1.486;2023-11-21T03:35:24;3.08;;;0.35;;
54561;SDS011;69047;53.358;-1.486;2023-11-21T03:37:51;0.93;;;0.28;;
54561;SDS011;69047;53.358;-1.486;2023-11-21T03:40:16;0.30;;;0.20;;
54561;SDS011;69047;53.358;-1.486;2023-11-21T03:42:42;1.17;;;0.20;;
54561;SDS011;69047;53.358;-1.486;2023-11-21T03:45:07;0.85;;;0.20;;
54561;SDS011;69047;53.358;-1.486;2023-11-21T03:47:33;2.75;;;0.10;;
54561;SDS011;69047;53.358;-1.486;2023-11-21T03:49:59;1.63;;;0.25;;
54561;SDS011;69047;53.358;-1.486;2023-11-21T03:52:25;2.28;;;0.20;;
54561;SDS011;69047;53.358;-1.486;2023-11-21T03:54:50;1.73;;;0.17;;
54561;SDS011;69047;53.358;-1.486;2023-11-21T03:57:15;0.85;;;0.15;;
54561;SDS011;69047;53.358;-1.486;2023-11-21T03:59:41;3.35;;;0.22;;
54561;SDS011;69047;53.358;-1.486;2023-11-21T04:02:07;0.63;;;0.35;;
54561;SDS011;69047;53.358;-1.486;2023-11-21T04:04:33;0.80;;;0.10;;
54561;SDS011;69047;53.358;-1.486;2023-11-21T04:06:59;1.45;;;0.28;;
54561;SDS011;69047;53.358;-1.486;2023-11-21T04:09:25;1.00;;;0.30;;
54561;SDS011;69047;53.358;-1.486;2023-11-21T04:11:53;1.15;;;0.20;;
54561;SDS011;69047;53.358;-1.486;2023-11-21T04:14:22;1.35;;;0.60;;
54561;SDS011;69047;53.358;-1.486;2023-11-21T04:16:56;1.77;;;0.30;;
54561;SDS011;69047;53.358;-1.486;2023-11-21T04:19:22;3.85;;;1.10;;
54561;SDS011;69047;53.358;-1.486;2023-11-21T04:21:48;0.95;;;0.32;;
54561;SDS011;69047;53.358;-1.486;2023-11-21T04:24:13;0.63;;;0.28;;
54561;SDS011;69047;53.358;-1.486;2023-11-21T04:26:38;1.88;;;0.50;;
54561;SDS011;69047;53.358;-1.486;2023-11-21T04:29:04;0.88;;;0.40;;
54561;SDS011;69047;53.358;-1.486;2023-11-21T04:31:29;2.08;;;0.40;;
54561;SDS011;69047;53.358;-1.486;2023-11-21T04:33:55;4.22;;;0.40;;
54561;SDS011;69047;53.358;-1.486;2023-11-21T04:36:21;0.40;;;0.28;;
54561;SDS011;69047;53.358;-1.486;2023-11-21T04:38:46;0.95;;;0.17;;
54561;SDS011;69047;53.358;-1.486;2023-11-21T04:41:11;1.20;;;0.20;;
54561;SDS011;69047;53.358;-1.486;2023-11-21T04:43:37;0.80;;;0.30;;
54561;SDS011;69047;53.358;-1.486;2023-11-21T04:46:02;0.30;;;0.20;;
54561;SDS011;69047;53.358;-1.486;2023-11-21T04:48:28;0.05;;;0.05;;
54561;SDS011;69047;53.358;-1.486;2023-11-21T04:50:53;0.75;;;0.15;;
54561;SDS011;69047;53.358;-1.486;2023-11-21T04:53:19;0.20;;;0.20;;
54561;SDS011;69047;53.358;-1.486;2023-11-21T04:55:44;2.58;;;0.40;;
54561;SDS011;69047;53.358;-1.486;2023-11-21T04:58:10;2.28;;;0.50;;
54561;SDS011;69047;53.358;-1.486;2023-11-21T05:00:37;0.52;;;0.20;;
54561;SDS011;69047;53.358;-1.486;2023-11-21T05:03:03;1.38;;;0.38;;
54561;SDS011;69047;53.358;-1.486;2023-11-21T05:05:30;1.25;;;0.30;;
54561;SDS011;69047;53.358;-1.486;2023-11-21T05:07:55;3.88;;;0.40;;
54561;SDS011;69047;53.358;-1.486;2023-11-21T05:10:21;3.08;;;0.32;;
54561;SDS011;69047;53.358;-1.486;2023-11-21T05:12:47;1.23;;;0.30;;
54561;SDS011;69047;53.358;-1.486;2023-11-21T05:15:15;1.75;;;0.40;;
54561;SDS011;69047;53.358;-1.486;2023-11-21T05:17:43;6.82;;;0.40;;
54561;SDS011;69047;53.358;-1.486;2023-11-21T05:20:10;2.38;;;0.45;;
54561;SDS011;69047;53.358;-1.486;2023-11-21T05:22:37;2.20;;;0.38;;
54561;SDS011;69047;53.358;-1.486;2023-11-21T05:25:03;1.65;;;0.30;;
54561;SDS011;69047;53.358;-1.486;2023-11-21T05:27:29;2.15;;;0.90;;
54561;SDS011;69047;53.358;-1.486;2023-11-21T05:29:55;2.15;;;0.40;;
54561;SDS011;69047;53.358;-1.486;2023-11-21T05:32:21;1.25;;;0.70;;
54561;SDS011;69047;53.358;-1.486;2023-11-21T05:34:47;1.75;;;0.47;;
54561;SDS011;69047;53.358;-1.486;2023-11-21T05:37:13;4.57;;;0.68;;
54561;SDS011;69047;53.358;-1.486;2023-11-21T05:39:38;2.47;;;0.43;;
54561;SDS011;69047;53.358;-1.486;2023-11-21T05:42:04;3.28;;;0.73;;
54561;SDS011;69047;53.358;-1.486;2023-11-21T05:44:30;1.40;;;0.30;;
54561;SDS011;69047;53.358;-1.486;2023-11-21T05:46:55;10.23;;;1.10;;
54561;SDS011;69047;53.358;-1.486;2023-11-21T05:49:20;0.40;;;0.40;;
54561;SDS011;69047;53.358;-1.486;2023-11-21T05:51:46;4.38;;;1.05;;
54561;SDS011;69047;53.358;-1.486;2023-11-21T05:54:34;2.53;;;0.73;;
54561;SDS011;69047;53.358;-1.486;2023-11-21T05:56:59;0.57;;;0.55;;
54561;SDS011;69047;53.358;-1.486;2023-11-21T05:59:24;1.85;;;0.50;;
54561;SDS011;69047;53.358;-1.486;2023-11-21T06:01:49;2.33;;;0.77;;
54561;SDS011;69047;53.358;-1.486;2023-11-21T06:04:15;4.88;;;0.93;;
54561;SDS011;69047;53.358;-1.486;2023-11-21T06:06:40;7.63;;;1.05;;
54561;SDS011;69047;53.358;-1.486;2023-11-21T06:09:06;3.42;;;0.90;;
54561;SDS011;69047;53.358;-1.486;2023-11-21T06:11:33;2.15;;;0.98;;
54561;SDS011;69047;53.358;-1.486;2023-11-21T06:13:59;5.00;;;0.50;;
54561;SDS011;69047;53.358;-1.486;2023-11-21T06:16:24;3.58;;;0.52;;
54561;SDS011;69047;53.358;-1.486;2023-11-21T06:18:50;3.60;;;0.80;;
54561;SDS011;69047;53.358;-1.486;2023-11-21T06:21:15;4.47;;;0.80;;
54561;SDS011;69047;53.358;-1.486;2023-11-21T06:23:42;2.20;;;0.60;;
54561;SDS011;69047;53.358;-1.486;2023-11-21T06:26:07;1.92;;;0.45;;
54561;SDS011;69047;53.358;-1.486;2023-11-21T06:28:34;0.95;;;0.52;;
54561;SDS011;69047;53.358;-1.486;2023-11-21T06:30:59;3.20;;;0.85;;
54561;SDS011;69047;53.358;-1.486;2023-11-21T06:33:30;2.58;;;0.70;;
54561;SDS011;69047;53.358;-1.486;2023-11-21T06:35:58;1.20;;;0.52;;
54561;SDS011;69047;53.358;-1.486;2023-11-21T06:38:24;1.80;;;0.52;;
54561;SDS011;69047;53.358;-1.486;2023-11-21T06:40:49;1.67;;;0.70;;
54561;SDS011;69047;53.358;-1.486;2023-11-21T06:43:15;3.05;;;1.02;;
54561;SDS011;69047;53.358;-1.486;2023-11-21T06:45:40;1.77;;;1.00;;
54561;SDS011;69047;53.358;-1.486;2023-11-21T06:48:05;4.10;;;0.98;;
54561;SDS011;69047;53.358;-1.486;2023-11-21T06:50:32;2.28;;;0.98;;
54561;SDS011;69047;53.358;-1.486;2023-11-21T06:52:59;2.65;;;0.63;;
54561;SDS011;69047;53.358;-1.486;2023-11-21T06:55:24;4.15;;;0.80;;
54561;SDS011;69047;53.358;-1.486;2023-11-21T06:57:50;5.22;;;1.15;;
54561;SDS011;69047;53.358;-1.486;2023-11-21T07:00:17;5.82;;;1.05;;
54561;SDS011;69047;53.358;-1.486;2023-11-21T07:02:43;5.95;;;1.23;;
54561;SDS011;69047;53.358;-1.486;2023-11-21T07:05:09;3.95;;;0.95;;
54561;SDS011;69047;53.358;-1.486;2023-11-21T07:07:35;3.40;;;0.75;;
54561;SDS011;69047;53.358;-1.486;2023-11-21T07:10:02;4.28;;;1.02;;
54561;SDS011;69047;53.358;-1.486;2023-11-21T07:12:28;6.18;;;1.30;;
54561;SDS011;69047;53.358;-1.486;2023-11-21T07:14:57;1.58;;;1.00;;
54561;SDS011;69047;53.358;-1.486;2023-11-21T07:17:22;6.10;;;1.40;;
54561;SDS011;69047;53.358;-1.486;2023-11-21T07:19:49;9.10;;;1.25;;
54561;SDS011;69047;53.358;-1.486;2023-11-21T07:22:15;3.30;;;1.58;;
54561;SDS011;69047;53.358;-1.486;2023-11-21T07:24:46;4.60;;;1.50;;
54561;SDS011;69047;53.358;-1.486;2023-11-21T07:27:13;3.55;;;1.13;;
54561;SDS011;69047;53.358;-1.486;2023-11-21T07:29:39;3.67;;;1.42;;
54561;SDS011;69047;53.358;-1.486;2023-11-21T07:32:05;8.27;;;1.00;;
54561;SDS011;69047;53.358;-1.486;2023-11-21T07:34:32;2.28;;;1.02;;
54561;SDS011;69047;53.358;-1.486;2023-11-21T07:36:59;7.05;;;1.50;;
54561;SDS011;69047;53.358;-1.486;2023-11-21T07:39:25;6.95;;;0.93;;
54561;SDS011;69047;53.358;-1.486;2023-11-21T07:41:50;4.18;;;0.88;;
54561;SDS011;69047;53.358;-1.486;2023-11-21T07:44:16;9.10;;;1.85;;
54561;SDS011;69047;53.358;-1.486;2023-11-21T07:46:48;6.38;;;1.40;;
54561;SDS011;69047;53.358;-1.486;2023-11-21T07:49:25;6.72;;;2.22;;
54561;SDS011;69047;53.358;-1.486;2023-11-21T07:51:51;5.35;;;2.08;;
54561;SDS011;69047;53.358;-1.486;2023-11-21T07:54:19;9.52;;;1.80;;
54561;SDS011;69047;53.358;-1.486;2023-11-21T07:56:56;4.93;;;1.88;;
54561;SDS011;69047;53.358;-1.486;2023-11-21T07:59:23;8.93;;;1.65;;
54561;SDS011;69047;53.358;-1.486;2023-11-21T08:01:49;6.75;;;1.77;;
54561;SDS011;69047;53.358;-1.486;2023-11-21T08:04:14;9.27;;;2.10;;
54561;SDS011;69047;53.358;-1.486;2023-11-21T08:06:40;6.82;;;1.60;;
54561;SDS011;69047;53.358;-1.486;2023-11-21T08:09:06;10.30;;;2.05;;
54561;SDS011;69047;53.358;-1.486;2023-11-21T08:11:33;7.57;;;2.40;;
54561;SDS011;69047;53.358;-1.486;2023-11-21T08:13:58;8.98;;;3.10;;
54561;SDS011;69047;53.358;-1.486;2023-11-21T08:16:24;9.07;;;2.30;;
54561;SDS011;69047;53.358;-1.486;2023-11-21T08:18:50;21.52;;;3.05;;
54561;SDS011;69047;53.358;-1.486;2023-11-21T08:21:16;10.60;;;2.97;;
54561;SDS011;69047;53.358;-1.486;2023-11-21T08:23:41;19.13;;;2.30;;
54561;SDS011;69047;53.358;-1.486;2023-11-21T08:26:07;17.70;;;2.00;;
54561;SDS011;69047;53.358;-1.486;2023-11-21T08:28:33;13.18;;;2.03;;
54561;SDS011;69047;53.358;-1.486;2023-11-21T08:31:00;8.35;;;2.42;;
54561;SDS011;69047;53.358;-1.486;2023-11-21T08:33:26;7.63;;;2.03;;
54561;SDS011;69047;53.358;-1.486;2023-11-21T08:35:51;17.90;;;2.42;;
54561;SDS011;69047;53.358;-1.486;2023-11-21T08:38:16;17.25;;;3.78;;
54561;SDS011;69047;53.358;-1.486;2023-11-21T08:40:42;15.10;;;3.70;;
54561;SDS011;69047;53.358;-1.486;2023-11-21T08:43:08;7.57;;;1.73;;
54561;SDS011;69047;53.358;-1.486;2023-11-21T08:45:34;13.07;;;2.47;;
54561;SDS011;69047;53.358;-1.486;2023-11-21T08:48:01;16.42;;;2.22;;
54561;SDS011;69047;53.358;-1.486;2023-11-21T08:50:27;17.85;;;2.88;;
54561;SDS011;69047;53.358;-1.486;2023-11-21T08:52:53;18.60;;;2.70;;
54561;SDS011;69047;53.358;-1.486;2023-11-21T08:55:18;16.50;;;2.40;;
54561;SDS011;69047;53.358;-1.486;2023-11-21T08:57:54;16.85;;;2.05;;
54561;SDS011;69047;53.358;-1.486;2023-11-21T09:00:20;17.65;;;2.60;;
54561;SDS011;69047;53.358;-1.486;2023-11-21T09:02:48;13.57;;;2.72;;
54561;SDS011;69047;53.358;-1.486;2023-11-21T09:05:20;12.63;;;2.72;;
54561;SDS011;69047;53.358;-1.486;2023-11-21T09:07:46;15.45;;;2.63;;
54561;SDS011;69047;53.358;-1.486;2023-11-21T09:10:13;13.82;;;2.45;;
54561;SDS011;69047;53.358;-1.486;2023-11-21T09:12:39;17.17;;;2.63;;
54561;SDS011;69047;53.358;-1.486;2023-11-21T09:15:06;15.77;;;2.70;;
54561;SDS011;69047;53.358;-1.486;2023-11-21T09:17:35;10.80;;;2.00;;
54561;SDS011;69047;53.358;-1.486;2023-11-21T09:20:00;17.38;;;3.15;;
54561;SDS011;69047;53.358;-1.486;2023-11-21T09:22:26;11.27;;;2.35;;
54561;SDS011;69047;53.358;-1.486;2023-11-21T09:24:52;10.05;;;2.28;;
54561;SDS011;69047;53.358;-1.486;2023-11-21T09:27:17;17.73;;;3.10;;
54561;SDS011;69047;53.358;-1.486;2023-11-21T09:29:43;17.50;;;4.13;;
54561;SDS011;69047;53.358;-1.486;2023-11-21T09:32:08;9.60;;;1.90;;
54561;SDS011;69047;53.358;-1.486;2023-11-21T09:34:39;12.18;;;3.63;;
54561;SDS011;69047;53.358;-1.486;2023-11-21T09:37:04;16.02;;;2.70;;
54561;SDS011;69047;53.358;-1.486;2023-11-21T09:39:31;14.57;;;1.70;;
54561;SDS011;69047;53.358;-1.486;2023-11-21T09:42:01;12.70;;;2.17;;
54561;SDS011;69047;53.358;-1.486;2023-11-21T09:44:36;7.50;;;1.95;;
54561;SDS011;69047;53.358;-1.486;2023-11-21T09:47:11;14.95;;;3.05;;
54561;SDS011;69047;53.358;-1.486;2023-11-21T09:49:41;10.63;;;2.35;;
54561;SDS011;69047;53.358;-1.486;2023-11-21T09:52:13;14.80;;;1.80;;
54561;SDS011;69047;53.358;-1.486;2023-11-21T09:54:47;12.25;;;2.47;;
54561;SDS011;69047;53.358;-1.486;2023-11-21T09:57:15;13.60;;;2.03;;
54561;SDS011;69047;53.358;-1.486;2023-11-21T09:59:43;13.18;;;3.22;;
54561;SDS011;69047;53.358;-1.486;2023-11-21T10:02:11;6.80;;;1.60;;
54561;SDS011;69047;53.358;-1.486;2023-11-21T10:04:38;9.07;;;1.80;;
54561;SDS011;69047;53.358;-1.486;2023-11-21T10:07:04;13.32;;;2.67;;
54561;SDS011;69047;53.358;-1.486;2023-11-21T10:09:34;20.80;;;4.03;;
54561;SDS011;69047;53.358;-1.486;2023-11-21T10:12:02;12.30;;;2.28;;
54561;SDS011;69047;53.358;-1.486;2023-11-21T10:14:33;16.17;;;1.83;;
54561;SDS011;69047;53.358;-1.486;2023-11-21T10:17:00;7.97;;;2.22;;
54561;SDS011;69047;53.358;-1.486;2023-11-21T10:19:26;8.20;;;1.88;;
54561;SDS011;69047;53.358;-1.486;2023-11-21T10:21:52;17.00;;;1.70;;
54561;SDS011;69047;53.358;-1.486;2023-11-21T10:24:19;12.38;;;1.98;;
54561;SDS011;69047;53.358;-1.486;2023-11-21T10:26:44;8.18;;;1.80;;
54561;SDS011;69047;53.358;-1.486;2023-11-21T10:29:14;15.55;;;2.00;;
54561;SDS011;69047;53.358;-1.486;2023-11-21T10:31:42;16.58;;;2.65;;
54561;SDS011;69047;53.358;-1.486;2023-11-21T10:34:18;24.25;;;2.88;;
54561;SDS011;69047;53.358;-1.486;2023-11-21T10:36:53;13.32;;;2.45;;
54561;SDS011;69047;53.358;-1.486;2023-11-21T10:39:21;11.23;;;2.28;;
54561;SDS011;69047;53.358;-1.486;2023-11-21T10:41:48;13.77;;;1.85;;
54561;SDS011;69047;53.358;-1.486;2023-11-21T10:44:16;12.43;;;1.60;;
54561;SDS011;69047;53.358;-1.486;2023-11-21T10:46:48;14.75;;;2.83;;
54561;SDS011;69047;53.358;-1.486;2023-11-21T10:49:25;14.95;;;2.13;;
54561;SDS011;69047;53.358;-1.486;2023-11-21T10:51:55;8.88;;;1.83;;
54561;SDS011;69047;53.358;-1.486;2023-11-21T10:54:28;22.95;;;2.45;;
54561;SDS011;69047;53.358;-1.486;2023-11-21T10:56:59;7.72;;;2.13;;
54561;SDS011;69047;53.358;-1.486;2023-11-21T10:59:29;22.40;;;1.50;;
54561;SDS011;69047;53.358;-1.486;2023-11-21T11:01:57;12.38;;;1.88;;
54561;SDS011;69047;53.358;-1.486;2023-11-21T11:04:23;10.77;;;2.03;;
54561;SDS011;69047;53.358;-1.486;2023-11-21T11:06:56;14.77;;;2.58;;
54561;SDS011;69047;53.358;-1.486;2023-11-21T11:09:26;10.30;;;1.75;;
54561;SDS011;69047;53.358;-1.486;2023-11-21T11:11:52;12.10;;;1.73;;
54561;SDS011;69047;53.358;-1.486;2023-11-21T11:14:20;9.25;;;1.65;;
54561;SDS011;69047;53.358;-1.486;2023-11-21T11:16:50;10.45;;;2.33;;
54561;SDS011;69047;53.358;-1.486;2023-11-21T11:19:18;8.82;;;1.95;;
54561;SDS011;69047;53.358;-1.486;2023-11-21T11:27:13;23.10;;;2.47;;
54561;SDS011;69047;53.358;-1.486;2023-11-21T11:32:25;8.70;;;1.98;;
54561;SDS011;69047;53.358;-1.486;2023-11-21T11:35:07;13.00;;;3.00;;
54561;SDS011;69047;53.358;-1.486;2023-11-21T11:37:41;13.73;;;3.33;;
54561;SDS011;69047;53.358;-1.486;2023-11-21T11:40:08;13.80;;;2.00;;
54561;SDS011;69047;53.358;-1.486;2023-11-21T11:42:36;6.93;;;1.88;;
54561;SDS011;69047;53.358;-1.486;2023-11-21T11:45:01;10.85;;;1.92;;
54561;SDS011;69047;53.358;-1.486;2023-11-21T11:47:30;11.07;;;2.25;;
54561;SDS011;69047;53.358;-1.486;2023-11-21T11:50:09;14.20;;;2.25;;
54561;SDS011;69047;53.358;-1.486;2023-11-21T11:55:19;9.85;;;1.38;;
54561;SDS011;69047;53.358;-1.486;2023-11-21T11:57:47;6.85;;;1.00;;
54561;SDS011;69047;53.358;-1.486;2023-11-21T12:00:21;7.07;;;1.77;;
54561;SDS011;69047;53.358;-1.486;2023-11-21T12:03:08;10.10;;;1.63;;
54561;SDS011;69047;53.358;-1.486;2023-11-21T12:05:34;10.25;;;1.65;;
54561;SDS011;69047;53.358;-1.486;2023-11-21T12:08:04;7.47;;;1.33;;
54561;SDS011;69047;53.358;-1.486;2023-11-21T12:10:32;8.00;;;1.60;;
54561;SDS011;69047;53.358;-1.486;2023-11-21T12:13:09;11.30;;;1.38;;
54561;SDS011;69047;53.358;-1.486;2023-11-21T12:15:37;12.95;;;1.67;;
54561;SDS011;69047;53.358;-1.486;2023-11-21T12:18:03;7.45;;;1.73;;
54561;SDS011;69047;53.358;-1.486;2023-11-21T12:20:30;5.15;;;1.92;;
54561;SDS011;69047;53.358;-1.486;2023-11-21T12:23:04;11.90;;;1.77;;
54561;SDS011;69047;53.358;-1.486;2023-11-21T12:25:31;11.35;;;1.83;;
54561;SDS011;69047;53.358;-1.486;2023-11-21T12:27:58;9.10;;;1.70;;
54561;SDS011;69047;53.358;-1.486;2023-11-21T12:30:32;8.75;;;1.33;;
54561;SDS011;69047;53.358;-1.486;2023-11-21T12:33:03;12.57;;;2.20;;
54561;SDS011;69047;53.358;-1.486;2023-11-21T12:35:32;13.40;;;2.92;;
54561;SDS011;69047;53.358;-1.486;2023-11-21T12:37:59;10.98;;;1.60;;
54561;SDS011;69047;53.358;-1.486;2023-11-21T12:40:27;14.38;;;2.67;;
54561;SDS011;69047;53.358;-1.486;2023-11-21T12:42:57;10.02;;;2.67;;
54561;SDS011;69047;53.358;-1.486;2023-11-21T12:45:42;14.68;;;2.58;;
54561;SDS011;69047;53.358;-1.486;2023-11-21T12:48:09;12.98;;;2.08;;
54561;SDS011;69047;53.358;-1.486;2023-11-21T12:50:37;5.88;;;1.52;;
54561;SDS011;69047;53.358;-1.486;2023-11-21T12:53:04;22.50;;;2.15;;
54561;SDS011;69047;53.358;-1.486;2023-11-21T12:55:32;11.27;;;2.58;;
54561;SDS011;69047;53.358;-1.486;2023-11-21T12:57:59;8.43;;;2.05;;
54561;SDS011;69047;53.358;-1.486;2023-11-21T13:00:34;9.75;;;2.08;;
54561;SDS011;69047;53.358;-1.486;2023-11-21T13:03:08;8.30;;;2.05;;
54561;SDS011;69047;53.358;-1.486;2023-11-21T13:05:37;7.63;;;1.92;;
54561;SDS011;69047;53.358;-1.486;2023-11-21T13:08:05;10.90;;;2.00;;
54561;SDS011;69047;53.358;-1.486;2023-11-21T13:10:38;13.02;;;2.35;;
54561;SDS011;69047;53.358;-1.486;2023-11-21T13:13:12;14.25;;;2.72;;
54561;SDS011;69047;53.358;-1.486;2023-11-21T13:15:49;11.75;;;1.98;;
54561;SDS011;69047;53.358;-1.486;2023-11-21T13:18:24;11.88;;;2.25;;
54561;SDS011;69047;53.358;-1.486;2023-11-21T13:20:54;8.43;;;2.28;;
54561;SDS011;69047;53.358;-1.486;2023-11-21T13:23:20;20.08;;;3.30;;
54561;SDS011;69047;53.358;-1.486;2023-11-21T13:25:47;12.60;;;1.50;;
54561;SDS011;69047;53.358;-1.486;2023-11-21T13:28:14;17.20;;;2.83;;
54561;SDS011;69047;53.358;-1.486;2023-11-21T13:30:49;10.32;;;2.45;;
54561;SDS011;69047;53.358;-1.486;2023-11-21T13:33:17;12.07;;;2.20;;
54561;SDS011;69047;53.358;-1.486;2023-11-21T13:35:46;12.60;;;2.15;;
54561;SDS011;69047;53.358;-1.486;2023-11-21T13:38:14;11.18;;;1.67;;
54561;SDS011;69047;53.358;-1.486;2023-11-21T13:40:48;9.70;;;1.58;;
54561;SDS011;69047;53.358;-1.486;2023-11-21T13:43:16;8.60;;;1.50;;
54561;SDS011;69047;53.358;-1.486;2023-11-21T13:45:44;7.18;;;1.92;;
54561;SDS011;69047;53.358;-1.486;2023-11-21T13:48:11;4.88;;;1.20;;
54561;SDS011;69047;53.358;-1.486;2023-11-21T13:50:50;7.75;;;1.42;;
54561;SDS011;69047;53.358;-1.486;2023-11-21T13:53:40;7.97;;;1.55;;
54561;SDS011;69047;53.358;-1.486;2023-11-21T13:56:07;7.95;;;1.80;;
54561;SDS011;69047;53.358;-1.486;2023-11-21T13:58:33;8.30;;;1.70;;
54561;SDS011;69047;53.358;-1.486;2023-11-21T14:01:26;5.82;;;1.95;;
54561;SDS011;69047;53.358;-1.486;2023-11-21T14:04:00;11.45;;;1.58;;
54561;SDS011;69047;53.358;-1.486;2023-11-21T14:06:47;16.08;;;3.88;;
54561;SDS011;69047;53.358;-1.486;2023-11-21T14:09:18;9.15;;;2.28;;
54561;SDS011;69047;53.358;-1.486;2023-11-21T14:11:53;11.57;;;1.90;;
54561;SDS011;69047;53.358;-1.486;2023-11-21T14:14:24;12.52;;;1.85;;
54561;SDS011;69047;53.358;-1.486;2023-11-21T14:16:54;5.85;;;1.20;;
54561;SDS011;69047;53.358;-1.486;2023-11-21T14:19:23;9.45;;;2.22;;
54561;SDS011;69047;53.358;-1.486;2023-11-21T14:21:52;8.93;;;1.50;;
54561;SDS011;69047;53.358;-1.486;2023-11-21T14:24:18;14.20;;;1.98;;
54561;SDS011;69047;53.358;-1.486;2023-11-21T14:26:46;13.23;;;1.60;;
54561;SDS011;69047;53.358;-1.486;2023-11-21T14:29:12;9.65;;;1.50;;
54561;SDS011;69047;53.358;-1.486;2023-11-21T14:31:41;9.55;;;2.08;;
54561;SDS011;69047;53.358;-1.486;2023-11-21T14:34:07;7.65;;;2.53;;
54561;SDS011;69047;53.358;-1.486;2023-11-21T14:36:35;3.67;;;1.60;;
54561;SDS011;69047;53.358;-1.486;2023-11-21T14:39:02;6.35;;;1.83;;
54561;SDS011;69047;53.358;-1.486;2023-11-21T14:41:32;10.02;;;1.77;;
54561;SDS011;69047;53.358;-1.486;2023-11-21T14:44:00;8.88;;;1.48;;